<?xml version="1.0" encoding="UTF-8" standalone="no" ?>
<gpx xmlns="http://www.topografix.com/GPX/1/1" xmlns:xsi="http://www.w3.org/2001/XMLSchema-instance" xsi:schemaLocation="http://www.topografix.com/GPX/1/1 http://www.topografix.com/GPX/1/1/gpx.xsd" version="1.1" creator="VisuGPX - https://www.visugpx.com">
  <metadata>
    <name>13046914-sonnenberg</name>
  </metadata>
  <trk>
    <name><![CDATA[13046914-sonnenberg]]></name>
    <trkseg>
      <trkpt lat="49.02514" lon="7.32902">
        <ele>369</ele>
        <time>2021-05-13T06:10:13Z</time>
      </trkpt>
      <trkpt lat="49.02486" lon="7.32814">
        <ele>370</ele>
        <time>2021-05-13T06:11:04Z</time>
      </trkpt>
      <trkpt lat="49.02486" lon="7.32602">
        <ele>366</ele>
        <time>2021-05-13T06:12:56Z</time>
      </trkpt>
      <trkpt lat="49.02499" lon="7.32441">
        <ele>357</ele>
        <time>2021-05-13T06:14:21Z</time>
      </trkpt>
      <trkpt lat="49.02469" lon="7.32267">
        <ele>356</ele>
        <time>2021-05-13T06:15:55Z</time>
      </trkpt>
      <trkpt lat="49.02379" lon="7.32104">
        <ele>362</ele>
        <time>2021-05-13T06:17:47Z</time>
      </trkpt>
      <trkpt lat="49.02233" lon="7.32055">
        <ele>356</ele>
        <time>2021-05-13T06:19:47Z</time>
      </trkpt>
      <trkpt lat="49.02273" lon="7.31885">
        <ele>355</ele>
        <time>2021-05-13T06:21:22Z</time>
      </trkpt>
      <trkpt lat="49.02339" lon="7.31759">
        <ele>353</ele>
        <time>2021-05-13T06:22:46Z</time>
      </trkpt>
      <trkpt lat="49.02423" lon="7.3159">
        <ele>347</ele>
        <time>2021-05-13T06:24:38Z</time>
      </trkpt>
      <trkpt lat="49.02257" lon="7.31134">
        <ele>337</ele>
        <time>2021-05-13T06:29:12Z</time>
      </trkpt>
      <trkpt lat="49.02229" lon="7.30974">
        <ele>330</ele>
        <time>2021-05-13T06:30:38Z</time>
      </trkpt>
      <trkpt lat="49.02089" lon="7.30792">
        <ele>324</ele>
        <time>2021-05-13T06:33:06Z</time>
      </trkpt>
      <trkpt lat="49.02026" lon="7.307">
        <ele>319</ele>
        <time>2021-05-13T06:34:16Z</time>
      </trkpt>
      <trkpt lat="49.01927" lon="7.30549">
        <ele>315</ele>
        <time>2021-05-13T06:36:08Z</time>
      </trkpt>
      <trkpt lat="49.01893" lon="7.3036">
        <ele>308</ele>
        <time>2021-05-13T06:37:51Z</time>
      </trkpt>
      <trkpt lat="49.01896" lon="7.30177">
        <ele>296</ele>
        <time>2021-05-13T06:39:27Z</time>
      </trkpt>
      <trkpt lat="49.0195" lon="7.29931">
        <ele>285</ele>
        <time>2021-05-13T06:41:43Z</time>
      </trkpt>
      <trkpt lat="49.01912" lon="7.2982">
        <ele>282</ele>
        <time>2021-05-13T06:42:49Z</time>
      </trkpt>
      <trkpt lat="49.01882" lon="7.29794">
        <ele>285</ele>
        <time>2021-05-13T06:43:16Z</time>
      </trkpt>
      <trkpt lat="49.01903" lon="7.29776">
        <ele>280</ele>
        <time>2021-05-13T06:43:36Z</time>
      </trkpt>
      <trkpt lat="49.01934" lon="7.29658">
        <ele>274</ele>
        <time>2021-05-13T06:44:42Z</time>
      </trkpt>
      <trkpt lat="49.01916" lon="7.29528">
        <ele>269</ele>
        <time>2021-05-13T06:45:52Z</time>
      </trkpt>
      <trkpt lat="49.01803" lon="7.29373">
        <ele>268</ele>
        <time>2021-05-13T06:47:54Z</time>
      </trkpt>
      <trkpt lat="49.01833" lon="7.29325">
        <ele>268</ele>
        <time>2021-05-13T06:48:29Z</time>
      </trkpt>
      <trkpt lat="49.01877" lon="7.29326">
        <ele>269</ele>
        <time>2021-05-13T06:49:04Z</time>
      </trkpt>
      <trkpt lat="49.02107" lon="7.2915">
        <ele>283</ele>
        <time>2021-05-13T06:52:30Z</time>
      </trkpt>
      <trkpt lat="49.02276" lon="7.29013">
        <ele>279</ele>
        <time>2021-05-13T06:55:03Z</time>
      </trkpt>
      <trkpt lat="49.02282" lon="7.29074">
        <ele>277</ele>
        <time>2021-05-13T06:55:36Z</time>
      </trkpt>
      <trkpt lat="49.02253" lon="7.29118">
        <ele>274</ele>
        <time>2021-05-13T06:56:08Z</time>
      </trkpt>
      <trkpt lat="49.02293" lon="7.29176">
        <ele>277</ele>
        <time>2021-05-13T06:56:53Z</time>
      </trkpt>
      <trkpt lat="49.02405" lon="7.29259">
        <ele>282</ele>
        <time>2021-05-13T06:58:32Z</time>
      </trkpt>
      <trkpt lat="49.02455" lon="7.29271">
        <ele>281</ele>
        <time>2021-05-13T06:59:13Z</time>
      </trkpt>
      <trkpt lat="49.026" lon="7.293">
        <ele>274</ele>
        <time>2021-05-13T07:01:10Z</time>
      </trkpt>
      <trkpt lat="49.0272" lon="7.29252">
        <ele>273</ele>
        <time>2021-05-13T07:02:49Z</time>
      </trkpt>
      <trkpt lat="49.02738" lon="7.29322">
        <ele>285</ele>
        <time>2021-05-13T07:03:29Z</time>
      </trkpt>
      <trkpt lat="49.02729" lon="7.29355">
        <ele>289</ele>
        <time>2021-05-13T07:03:47Z</time>
      </trkpt>
      <trkpt lat="49.02889" lon="7.2918">
        <ele>288</ele>
        <time>2021-05-13T07:06:25Z</time>
      </trkpt>
      <trkpt lat="49.02972" lon="7.29139">
        <ele>293</ele>
        <time>2021-05-13T07:07:35Z</time>
      </trkpt>
      <trkpt lat="49.03008" lon="7.29142">
        <ele>296</ele>
        <time>2021-05-13T07:08:04Z</time>
      </trkpt>
      <trkpt lat="49.02849" lon="7.29318">
        <ele>309</ele>
        <time>2021-05-13T07:10:41Z</time>
      </trkpt>
      <trkpt lat="49.02815" lon="7.29407">
        <ele>311</ele>
        <time>2021-05-13T07:11:35Z</time>
      </trkpt>
      <trkpt lat="49.02811" lon="7.29511">
        <ele>312</ele>
        <time>2021-05-13T07:12:30Z</time>
      </trkpt>
      <trkpt lat="49.02885" lon="7.29484">
        <ele>326</ele>
        <time>2021-05-13T07:13:31Z</time>
      </trkpt>
      <trkpt lat="49.02927" lon="7.29478">
        <ele>332</ele>
        <time>2021-05-13T07:14:05Z</time>
      </trkpt>
      <trkpt lat="49.02956" lon="7.29483">
        <ele>335</ele>
        <time>2021-05-13T07:14:28Z</time>
      </trkpt>
      <trkpt lat="49.03006" lon="7.29577">
        <ele>340</ele>
        <time>2021-05-13T07:15:32Z</time>
      </trkpt>
      <trkpt lat="49.03098" lon="7.29665">
        <ele>332</ele>
        <time>2021-05-13T07:16:58Z</time>
      </trkpt>
      <trkpt lat="49.03163" lon="7.29676">
        <ele>328</ele>
        <time>2021-05-13T07:17:51Z</time>
      </trkpt>
      <trkpt lat="49.03236" lon="7.2966">
        <ele>330</ele>
        <time>2021-05-13T07:18:50Z</time>
      </trkpt>
      <trkpt lat="49.03239" lon="7.29683">
        <ele>332</ele>
        <time>2021-05-13T07:19:02Z</time>
      </trkpt>
      <trkpt lat="49.03221" lon="7.29819">
        <ele>334</ele>
        <time>2021-05-13T07:20:15Z</time>
      </trkpt>
      <trkpt lat="49.03087" lon="7.30197">
        <ele>331</ele>
        <time>2021-05-13T07:24:01Z</time>
      </trkpt>
      <trkpt lat="49.03229" lon="7.30339">
        <ele>338</ele>
        <time>2021-05-13T07:26:17Z</time>
      </trkpt>
      <trkpt lat="49.03351" lon="7.3042">
        <ele>342</ele>
        <time>2021-05-13T07:28:03Z</time>
      </trkpt>
      <trkpt lat="49.03486" lon="7.30376">
        <ele>345</ele>
        <time>2021-05-13T07:29:54Z</time>
      </trkpt>
      <trkpt lat="49.036" lon="7.30454">
        <ele>342</ele>
        <time>2021-05-13T07:31:34Z</time>
      </trkpt>
      <trkpt lat="49.03621" lon="7.30446">
        <ele>343</ele>
        <time>2021-05-13T07:31:51Z</time>
      </trkpt>
      <trkpt lat="49.03705" lon="7.3054">
        <ele>340</ele>
        <time>2021-05-13T07:33:14Z</time>
      </trkpt>
      <trkpt lat="49.03801" lon="7.30583">
        <ele>341</ele>
        <time>2021-05-13T07:34:35Z</time>
      </trkpt>
      <trkpt lat="49.03735" lon="7.30882">
        <ele>331</ele>
        <time>2021-05-13T07:37:20Z</time>
      </trkpt>
      <trkpt lat="49.03704" lon="7.31171">
        <ele>324</ele>
        <time>2021-05-13T07:39:54Z</time>
      </trkpt>
      <trkpt lat="49.03656" lon="7.31265">
        <ele>323</ele>
        <time>2021-05-13T07:40:56Z</time>
      </trkpt>
      <trkpt lat="49.03427" lon="7.31516">
        <ele>340</ele>
        <time>2021-05-13T07:44:42Z</time>
      </trkpt>
      <trkpt lat="49.0329" lon="7.31815">
        <ele>349</ele>
        <time>2021-05-13T07:47:54Z</time>
      </trkpt>
      <trkpt lat="49.03324" lon="7.31914">
        <ele>348</ele>
        <time>2021-05-13T07:48:52Z</time>
      </trkpt>
      <trkpt lat="49.03354" lon="7.31962">
        <ele>347</ele>
        <time>2021-05-13T07:49:27Z</time>
      </trkpt>
      <trkpt lat="49.03396" lon="7.31939">
        <ele>345</ele>
        <time>2021-05-13T07:50:03Z</time>
      </trkpt>
      <trkpt lat="49.03408" lon="7.31954">
        <ele>346</ele>
        <time>2021-05-13T07:50:15Z</time>
      </trkpt>
      <trkpt lat="49.03465" lon="7.32061">
        <ele>342</ele>
        <time>2021-05-13T07:51:28Z</time>
      </trkpt>
      <trkpt lat="49.03457" lon="7.32155">
        <ele>344</ele>
        <time>2021-05-13T07:52:17Z</time>
      </trkpt>
      <trkpt lat="49.03493" lon="7.32235">
        <ele>340</ele>
        <time>2021-05-13T07:53:08Z</time>
      </trkpt>
      <trkpt lat="49.03548" lon="7.3215">
        <ele>335</ele>
        <time>2021-05-13T07:54:11Z</time>
      </trkpt>
      <trkpt lat="49.03609" lon="7.32169">
        <ele>332</ele>
        <time>2021-05-13T07:55:01Z</time>
      </trkpt>
      <trkpt lat="49.03713" lon="7.32403">
        <ele>326</ele>
        <time>2021-05-13T07:57:29Z</time>
      </trkpt>
      <trkpt lat="49.03519" lon="7.32577">
        <ele>316</ele>
        <time>2021-05-13T08:00:29Z</time>
      </trkpt>
      <trkpt lat="49.03452" lon="7.32621">
        <ele>314</ele>
        <time>2021-05-13T08:01:28Z</time>
      </trkpt>
      <trkpt lat="49.03438" lon="7.3273">
        <ele>313</ele>
        <time>2021-05-13T08:02:26Z</time>
      </trkpt>
      <trkpt lat="49.03461" lon="7.32852">
        <ele>332</ele>
        <time>2021-05-13T08:03:33Z</time>
      </trkpt>
      <trkpt lat="49.03495" lon="7.32944">
        <ele>343</ele>
        <time>2021-05-13T08:04:28Z</time>
      </trkpt>
      <trkpt lat="49.03543" lon="7.33041">
        <ele>355</ele>
        <time>2021-05-13T08:05:32Z</time>
      </trkpt>
      <trkpt lat="49.03599" lon="7.33046">
        <ele>358</ele>
        <time>2021-05-13T08:06:17Z</time>
      </trkpt>
      <trkpt lat="49.03565" lon="7.33164">
        <ele>360</ele>
        <time>2021-05-13T08:07:25Z</time>
      </trkpt>
      <trkpt lat="49.03651" lon="7.3312">
        <ele>358</ele>
        <time>2021-05-13T08:08:37Z</time>
      </trkpt>
      <trkpt lat="49.03766" lon="7.33149">
        <ele>357</ele>
        <time>2021-05-13T08:10:11Z</time>
      </trkpt>
      <trkpt lat="49.03753" lon="7.33587">
        <ele>366</ele>
        <time>2021-05-13T08:14:01Z</time>
      </trkpt>
      <trkpt lat="49.03793" lon="7.33956">
        <ele>359</ele>
        <time>2021-05-13T08:17:17Z</time>
      </trkpt>
      <trkpt lat="49.03719" lon="7.33965">
        <ele>363</ele>
        <time>2021-05-13T08:18:16Z</time>
      </trkpt>
      <trkpt lat="49.03666" lon="7.34078">
        <ele>366</ele>
        <time>2021-05-13T08:19:29Z</time>
      </trkpt>
      <trkpt lat="49.03663" lon="7.34206">
        <ele>369</ele>
        <time>2021-05-13T08:20:37Z</time>
      </trkpt>
      <trkpt lat="49.03622" lon="7.34257">
        <ele>371</ele>
        <time>2021-05-13T08:21:19Z</time>
      </trkpt>
      <trkpt lat="49.03524" lon="7.34166">
        <ele>371</ele>
        <time>2021-05-13T08:22:51Z</time>
      </trkpt>
      <trkpt lat="49.03388" lon="7.34119">
        <ele>372</ele>
        <time>2021-05-13T08:24:43Z</time>
      </trkpt>
      <trkpt lat="49.03467" lon="7.34281">
        <ele>364</ele>
        <time>2021-05-13T08:26:28Z</time>
      </trkpt>
      <trkpt lat="49.03512" lon="7.34471">
        <ele>356</ele>
        <time>2021-05-13T08:28:15Z</time>
      </trkpt>
      <trkpt lat="49.03485" lon="7.34808">
        <ele>324</ele>
        <time>2021-05-13T08:31:13Z</time>
      </trkpt>
      <trkpt lat="49.03498" lon="7.34928">
        <ele>314</ele>
        <time>2021-05-13T08:32:17Z</time>
      </trkpt>
      <trkpt lat="49.03532" lon="7.35032">
        <ele>309</ele>
        <time>2021-05-13T08:33:18Z</time>
      </trkpt>
      <trkpt lat="49.03535" lon="7.35072">
        <ele>305</ele>
        <time>2021-05-13T08:33:39Z</time>
      </trkpt>
      <trkpt lat="49.03594" lon="7.35241">
        <ele>295</ele>
        <time>2021-05-13T08:35:19Z</time>
      </trkpt>
      <trkpt lat="49.03619" lon="7.35338">
        <ele>294</ele>
        <time>2021-05-13T08:36:14Z</time>
      </trkpt>
      <trkpt lat="49.03619" lon="7.35395">
        <ele>290</ele>
        <time>2021-05-13T08:36:44Z</time>
      </trkpt>
      <trkpt lat="49.03615" lon="7.35499">
        <ele>283</ele>
        <time>2021-05-13T08:37:39Z</time>
      </trkpt>
      <trkpt lat="49.03626" lon="7.35694">
        <ele>271</ele>
        <time>2021-05-13T08:39:21Z</time>
      </trkpt>
      <trkpt lat="49.03513" lon="7.35708">
        <ele>277</ele>
        <time>2021-05-13T08:40:52Z</time>
      </trkpt>
      <trkpt lat="49.03493" lon="7.35699">
        <ele>282</ele>
        <time>2021-05-13T08:41:09Z</time>
      </trkpt>
      <trkpt lat="49.03485" lon="7.35643">
        <ele>293</ele>
        <time>2021-05-13T08:41:39Z</time>
      </trkpt>
      <trkpt lat="49.03506" lon="7.35616">
        <ele>291</ele>
        <time>2021-05-13T08:42:01Z</time>
      </trkpt>
      <trkpt lat="49.03521" lon="7.35568">
        <ele>294</ele>
        <time>2021-05-13T08:42:29Z</time>
      </trkpt>
      <trkpt lat="49.03488" lon="7.35525">
        <ele>310</ele>
        <time>2021-05-13T08:43:03Z</time>
      </trkpt>
      <trkpt lat="49.03482" lon="7.35438">
        <ele>319</ele>
        <time>2021-05-13T08:43:49Z</time>
      </trkpt>
      <trkpt lat="49.0346" lon="7.35333">
        <ele>322</ele>
        <time>2021-05-13T08:44:47Z</time>
      </trkpt>
      <trkpt lat="49.03383" lon="7.35238">
        <ele>339</ele>
        <time>2021-05-13T08:46:07Z</time>
      </trkpt>
      <trkpt lat="49.03186" lon="7.35083">
        <ele>368</ele>
        <time>2021-05-13T08:49:04Z</time>
      </trkpt>
      <trkpt lat="49.03051" lon="7.34886">
        <ele>380</ele>
        <time>2021-05-13T08:51:34Z</time>
      </trkpt>
      <trkpt lat="49.02956" lon="7.34706">
        <ele>379</ele>
        <time>2021-05-13T08:53:35Z</time>
      </trkpt>
      <trkpt lat="49.02847" lon="7.34437">
        <ele>378</ele>
        <time>2021-05-13T08:56:21Z</time>
      </trkpt>
      <trkpt lat="49.02815" lon="7.34274">
        <ele>378</ele>
        <time>2021-05-13T08:57:50Z</time>
      </trkpt>
      <trkpt lat="49.02869" lon="7.34102">
        <ele>377</ele>
        <time>2021-05-13T08:59:30Z</time>
      </trkpt>
      <trkpt lat="49.02763" lon="7.34083">
        <ele>382</ele>
        <time>2021-05-13T09:00:56Z</time>
      </trkpt>
      <trkpt lat="49.02599" lon="7.33977">
        <ele>382</ele>
        <time>2021-05-13T09:03:18Z</time>
      </trkpt>
      <trkpt lat="49.02547" lon="7.34209">
        <ele>381</ele>
        <time>2021-05-13T09:05:27Z</time>
      </trkpt>
      <trkpt lat="49.02584" lon="7.34361">
        <ele>384</ele>
        <time>2021-05-13T09:06:52Z</time>
      </trkpt>
      <trkpt lat="49.02705" lon="7.3457">
        <ele>384</ele>
        <time>2021-05-13T09:09:19Z</time>
      </trkpt>
      <trkpt lat="49.02705" lon="7.34641">
        <ele>383</ele>
        <time>2021-05-13T09:09:56Z</time>
      </trkpt>
      <trkpt lat="49.02727" lon="7.34714">
        <ele>384</ele>
        <time>2021-05-13T09:10:38Z</time>
      </trkpt>
      <trkpt lat="49.02627" lon="7.34776">
        <ele>376</ele>
        <time>2021-05-13T09:12:05Z</time>
      </trkpt>
      <trkpt lat="49.02591" lon="7.34926">
        <ele>374</ele>
        <time>2021-05-13T09:13:28Z</time>
      </trkpt>
      <trkpt lat="49.02575" lon="7.35111">
        <ele>372</ele>
        <time>2021-05-13T09:15:06Z</time>
      </trkpt>
      <trkpt lat="49.02555" lon="7.35093">
        <ele>366</ele>
        <time>2021-05-13T09:15:25Z</time>
      </trkpt>
      <trkpt lat="49.02542" lon="7.34961">
        <ele>359</ele>
        <time>2021-05-13T09:16:35Z</time>
      </trkpt>
      <trkpt lat="49.02501" lon="7.35048">
        <ele>348</ele>
        <time>2021-05-13T09:17:31Z</time>
      </trkpt>
      <trkpt lat="49.02407" lon="7.35342">
        <ele>313</ele>
        <time>2021-05-13T09:20:23Z</time>
      </trkpt>
      <trkpt lat="49.02279" lon="7.3522">
        <ele>292</ele>
        <time>2021-05-13T09:22:24Z</time>
      </trkpt>
      <trkpt lat="49.02213" lon="7.35086">
        <ele>294</ele>
        <time>2021-05-13T09:23:52Z</time>
      </trkpt>
      <trkpt lat="49.02192" lon="7.35093">
        <ele>292</ele>
        <time>2021-05-13T09:24:09Z</time>
      </trkpt>
      <trkpt lat="49.02062" lon="7.34732">
        <ele>309</ele>
        <time>2021-05-13T09:27:45Z</time>
      </trkpt>
      <trkpt lat="49.01984" lon="7.34372">
        <ele>302</ele>
        <time>2021-05-13T09:31:04Z</time>
      </trkpt>
      <trkpt lat="49.01928" lon="7.34226">
        <ele>304</ele>
        <time>2021-05-13T09:32:33Z</time>
      </trkpt>
      <trkpt lat="49.01956" lon="7.34161">
        <ele>307</ele>
        <time>2021-05-13T09:33:14Z</time>
      </trkpt>
      <trkpt lat="49.01909" lon="7.33731">
        <ele>368</ele>
        <time>2021-05-13T09:37:03Z</time>
      </trkpt>
      <trkpt lat="49.01984" lon="7.33676">
        <ele>363</ele>
        <time>2021-05-13T09:38:10Z</time>
      </trkpt>
      <trkpt lat="49.0206" lon="7.33511">
        <ele>360</ele>
        <time>2021-05-13T09:39:56Z</time>
      </trkpt>
      <trkpt lat="49.02104" lon="7.33451">
        <ele>362</ele>
        <time>2021-05-13T09:40:43Z</time>
      </trkpt>
      <trkpt lat="49.02164" lon="7.3345">
        <ele>360</ele>
        <time>2021-05-13T09:41:31Z</time>
      </trkpt>
      <trkpt lat="49.02181" lon="7.33284">
        <ele>371</ele>
        <time>2021-05-13T09:42:59Z</time>
      </trkpt>
      <trkpt lat="49.02341" lon="7.33152">
        <ele>373</ele>
        <time>2021-05-13T09:45:25Z</time>
      </trkpt>
      <trkpt lat="49.0252" lon="7.3295">
        <ele>369</ele>
        <time>2021-05-13T09:48:23Z</time>
      </trkpt>
    </trkseg>
  </trk>
</gpx>